Star Kilimanjaro — LAIG7 — position and weather

sailwx.info

Track history (hours):
 
Tides and Currents Weather Stations Pressure Air Temp Water Temp Dewpoint Dewpoint Depression Visibility Wind Speed Wind Dir Waves Ship Positions

Star Kilimanjaro

Last reported at 2017-Nov-14 05:37 UTC. Time now 2017-Nov-22 09:26 UTC.
Position N 34°12' W 077°57'.
Warning: this ship's position is 8 days out of date.

Length 208 m; draft 7.9 m.

Type: Cargo ship. MMSI: 257350000.

Date/timePositionNaut miles runAvg speedWind from/ knotsBaromVisibWave heightAir tempDewpointWater temp
2017-Nov-14 05:37N 34°12' W 077°57'0 1.2
2017-Nov-14 05:31N 34°13' W 077°57'  
2017-Nov-11 07:14N 26°17' W 079°27'314.4
2017-Nov-11 07:00N 26°14' W 079°28'714.4
2017-Nov-11 06:31N 26°07' W 079°28'714.4
2017-Nov-11 06:01N 26°00' W 079°30'714.5
2017-Nov-11 05:31N 25°53' W 079°31'714.6
2017-Nov-11 05:00N 25°46' W 079°31'714.6
2017-Nov-11 04:30N 25°38' W 079°32'815.1
2017-Nov-11 04:01N 25°31' W 079°33'3014.7
2017-Nov-11 01:59N 25°01' W 079°37'714.4
2017-Nov-11 01:30N 24°54' W 079°39'714.2
2017-Nov-11 01:00N 24°48' W 079°40'713.4
2017-Nov-11 00:30N 24°41' W 079°42'713.4
2017-Nov-11 00:00N 24°38' W 079°49'713.9
2017-Nov-10 23:28N 24°35' W 079°56'2214.2
2017-Nov-10 21:57N 24°24' W 080°16'1014.4
2017-Nov-10 21:16N 24°18' W 080°25'  
2017-Nov-06 02:30N 29°46' W 093°54'  
Track history (hours):
 
Tides and Currents Weather Stations Pressure Air Temp Water Temp Dewpoint Dewpoint Depression Visibility Wind Speed Wind Dir Waves Ship Positions

Star Kilimanjaro

Last reported at 2017-Nov-14 05:37 UTC. Time now 2017-Nov-22 09:26 UTC.
Position N 34°12' W 077°57'.
Warning: this ship's position is 8 days out of date.

Length 208 m; draft 7.9 m.

Type: Cargo ship. MMSI: 257350000.

Date/timePositionNaut miles runAvg speedWind from/ knotsBaromVisibWave heightAir tempDewpointWater temp
2017-Nov-14 05:37N 34°12' W 077°57'0 1.2
2017-Nov-14 05:31N 34°13' W 077°57'  
2017-Nov-11 07:14N 26°17' W 079°27'314.4
2017-Nov-11 07:00N 26°14' W 079°28'714.4
2017-Nov-11 06:31N 26°07' W 079°28'714.4
2017-Nov-11 06:01N 26°00' W 079°30'714.5
2017-Nov-11 05:31N 25°53' W 079°31'714.6
2017-Nov-11 05:00N 25°46' W 079°31'714.6
2017-Nov-11 04:30N 25°38' W 079°32'815.1
2017-Nov-11 04:01N 25°31' W 079°33'3014.7
2017-Nov-11 01:59N 25°01' W 079°37'714.4
2017-Nov-11 01:30N 24°54' W 079°39'714.2
2017-Nov-11 01:00N 24°48' W 079°40'713.4
2017-Nov-11 00:30N 24°41' W 079°42'713.4
2017-Nov-11 00:00N 24°38' W 079°49'713.9
2017-Nov-10 23:28N 24°35' W 079°56'2214.2
2017-Nov-10 21:57N 24°24' W 080°16'1014.4
2017-Nov-10 21:16N 24°18' W 080°25'  
2017-Nov-06 02:30N 29°46' W 093°54'  

Dump ship's entire track history